sensor_id;sensor_type;location;lat;lon;timestamp;pressure;altitude;pressure_sealevel;temperature;humidity
8320;BME280;4197;42.130;24.746;2023-05-10T00:01:36;99989.44;;;9.92;100.00
8320;BME280;4197;42.130;24.746;2023-05-10T00:04:04;99972.69;;;9.78;100.00
8320;BME280;4197;42.130;24.746;2023-05-10T00:06:33;99983.41;;;9.74;100.00
8320;BME280;4197;42.130;24.746;2023-05-10T00:09:01;99977.28;;;9.65;100.00
8320;BME280;4197;42.130;24.746;2023-05-10T00:11:30;99974.13;;;9.75;100.00
8320;BME280;4197;42.130;24.746;2023-05-10T00:13:58;99969.16;;;9.65;100.00
8320;BME280;4197;42.130;24.746;2023-05-10T00:16:28;99970.94;;;9.61;100.00
8320;BME280;4197;42.130;24.746;2023-05-10T00:18:59;99960.91;;;9.61;100.00
8320;BME280;4197;42.130;24.746;2023-05-10T00:21:28;99969.25;;;9.56;100.00
8320;BME280;4197;42.130;24.746;2023-05-10T00:23:56;99967.44;;;9.60;100.00
8320;BME280;4197;42.130;24.746;2023-05-10T00:26:24;99961.56;;;9.58;100.00
8320;BME280;4197;42.130;24.746;2023-05-10T00:28:52;99966.78;;;9.64;100.00
8320;BME280;4197;42.130;24.746;2023-05-10T00:31:20;99960.69;;;9.67;100.00
8320;BME280;4197;42.130;24.746;2023-05-10T00:33:49;99963.38;;;9.54;100.00
8320;BME280;4197;42.130;24.746;2023-05-10T00:36:19;99957.84;;;9.51;100.00
8320;BME280;4197;42.130;24.746;2023-05-10T00:38:47;99958.97;;;9.50;100.00
8320;BME280;4197;42.130;24.746;2023-05-10T00:41:16;99944.53;;;9.46;100.00
8320;BME280;4197;42.130;24.746;2023-05-10T00:43:45;99947.69;;;9.48;100.00
8320;BME280;4197;42.130;24.746;2023-05-10T00:46:14;99961.44;;;9.43;100.00
8320;BME280;4197;42.130;24.746;2023-05-10T00:48:44;99947.91;;;9.43;100.00
8320;BME280;4197;42.130;24.746;2023-05-10T00:51:13;99954.63;;;9.36;100.00
8320;BME280;4197;42.130;24.746;2023-05-10T00:53:44;99950.53;;;9.30;100.00
8320;BME280;4197;42.130;24.746;2023-05-10T00:56:14;99943.34;;;9.34;100.00
8320;BME280;4197;42.130;24.746;2023-05-10T00:58:43;99949.00;;;9.42;100.00
8320;BME280;4197;42.130;24.746;2023-05-10T01:01:11;99947.16;;;9.33;100.00
8320;BME280;4197;42.130;24.746;2023-05-10T01:03:40;99951.47;;;9.34;100.00
8320;BME280;4197;42.130;24.746;2023-05-10T01:06:09;99957.31;;;9.36;100.00
8320;BME280;4197;42.130;24.746;2023-05-10T01:08:38;99956.34;;;9.41;100.00
8320;BME280;4197;42.130;24.746;2023-05-10T01:11:10;99953.97;;;9.40;100.00
8320;BME280;4197;42.130;24.746;2023-05-10T01:13:40;99962.31;;;9.34;100.00
8320;BME280;4197;42.130;24.746;2023-05-10T01:16:09;99957.22;;;9.33;100.00
8320;BME280;4197;42.130;24.746;2023-05-10T01:18:40;99954.78;;;9.19;100.00
8320;BME280;4197;42.130;24.746;2023-05-10T01:21:17;99966.94;;;9.13;100.00
8320;BME280;4197;42.130;24.746;2023-05-10T01:24:10;99967.66;;;9.22;100.00
8320;BME280;4197;42.130;24.746;2023-05-10T01:27:03;99971.69;;;9.16;100.00
8320;BME280;4197;42.130;24.746;2023-05-10T01:32:50;99967.81;;;9.05;100.00
8320;BME280;4197;42.130;24.746;2023-05-10T01:35:29;99957.97;;;9.00;100.00
8320;BME280;4197;42.130;24.746;2023-05-10T01:38:07;99962.06;;;9.06;100.00
8320;BME280;4197;42.130;24.746;2023-05-10T01:40:46;99956.97;;;9.05;100.00
8320;BME280;4197;42.130;24.746;2023-05-10T01:43:21;99964.81;;;8.98;100.00
8320;BME280;4197;42.130;24.746;2023-05-10T01:45:59;99954.94;;;9.02;100.00
8320;BME280;4197;42.130;24.746;2023-05-10T01:48:33;99949.06;;;9.00;100.00
8320;BME280;4197;42.130;24.746;2023-05-10T01:51:02;99959.38;;;9.06;100.00
8320;BME280;4197;42.130;24.746;2023-05-10T01:53:34;99953.69;;;8.99;100.00
8320;BME280;4197;42.130;24.746;2023-05-10T01:56:05;99954.34;;;8.96;100.00
8320;BME280;4197;42.130;24.746;2023-05-10T01:58:36;99939.56;;;8.93;100.00
8320;BME280;4197;42.130;24.746;2023-05-10T02:01:10;99949.72;;;8.97;100.00
8320;BME280;4197;42.130;24.746;2023-05-10T02:03:43;99951.28;;;8.98;100.00
8320;BME280;4197;42.130;24.746;2023-05-10T02:06:13;99954.94;;;9.02;100.00
8320;BME280;4197;42.130;24.746;2023-05-10T02:08:44;99952.50;;;8.88;100.00
8320;BME280;4197;42.130;24.746;2023-05-10T02:11:14;99960.94;;;8.86;100.00
8320;BME280;4197;42.130;24.746;2023-05-10T02:13:43;99967.94;;;8.87;100.00
8320;BME280;4197;42.130;24.746;2023-05-10T02:16:15;99962.97;;;8.89;100.00
8320;BME280;4197;42.130;24.746;2023-05-10T02:18:47;99959.47;;;8.89;100.00
8320;BME280;4197;42.130;24.746;2023-05-10T02:21:18;99960.41;;;8.93;100.00
8320;BME280;4197;42.130;24.746;2023-05-10T02:23:49;99964.91;;;8.89;100.00
8320;BME280;4197;42.130;24.746;2023-05-10T02:26:21;99963.03;;;8.81;100.00
8320;BME280;4197;42.130;24.746;2023-05-10T02:28:52;99963.38;;;8.79;100.00
8320;BME280;4197;42.130;24.746;2023-05-10T02:31:22;99967.00;;;8.83;100.00
8320;BME280;4197;42.130;24.746;2023-05-10T02:33:54;99958.47;;;8.73;100.00
8320;BME280;4197;42.130;24.746;2023-05-10T02:36:23;99967.53;;;8.77;100.00
8320;BME280;4197;42.130;24.746;2023-05-10T02:38:56;99964.09;;;8.67;100.00
8320;BME280;4197;42.130;24.746;2023-05-10T02:41:27;99961.25;;;8.64;100.00
8320;BME280;4197;42.130;24.746;2023-05-10T02:43:59;99967.59;;;8.68;100.00
8320;BME280;4197;42.130;24.746;2023-05-10T02:46:29;99965.34;;;8.70;100.00
8320;BME280;4197;42.130;24.746;2023-05-10T02:49:00;99967.66;;;8.59;100.00
8320;BME280;4197;42.130;24.746;2023-05-10T02:51:32;99969.22;;;8.60;100.00
8320;BME280;4197;42.130;24.746;2023-05-10T02:54:10;99969.88;;;8.57;100.00
8320;BME280;4197;42.130;24.746;2023-05-10T02:56:44;99968.84;;;8.70;100.00
8320;BME280;4197;42.130;24.746;2023-05-10T02:59:15;99964.91;;;8.68;100.00
8320;BME280;4197;42.130;24.746;2023-05-10T03:01:44;99959.81;;;8.66;100.00
8320;BME280;4197;42.130;24.746;2023-05-10T03:04:14;99962.25;;;8.59;100.00
8320;BME280;4197;42.130;24.746;2023-05-10T03:06:43;99958.81;;;8.71;100.00
8320;BME280;4197;42.130;24.746;2023-05-10T03:09:13;99974.34;;;8.53;100.00
8320;BME280;4197;42.130;24.746;2023-05-10T03:11:53;99968.63;;;8.55;100.00
8320;BME280;4197;42.130;24.746;2023-05-10T03:14:45;99963.69;;;8.57;100.00
8320;BME280;4197;42.130;24.746;2023-05-10T03:17:27;99966.84;;;8.59;100.00
8320;BME280;4197;42.130;24.746;2023-05-10T03:20:03;99967.06;;;8.54;100.00
8320;BME280;4197;42.130;24.746;2023-05-10T03:22:37;99971.03;;;8.47;100.00
8320;BME280;4197;42.130;24.746;2023-05-10T03:25:08;99975.34;;;8.48;100.00
8320;BME280;4197;42.130;24.746;2023-05-10T03:27:40;99976.25;;;8.53;100.00
8320;BME280;4197;42.130;24.746;2023-05-10T03:30:11;99977.53;;;8.55;100.00
8320;BME280;4197;42.130;24.746;2023-05-10T03:32:40;99983.47;;;8.48;100.00
8320;BME280;4197;42.130;24.746;2023-05-10T03:35:12;99977.09;;;8.44;100.00
8320;BME280;4197;42.130;24.746;2023-05-10T03:37:41;99983.28;;;8.54;100.00
8320;BME280;4197;42.130;24.746;2023-05-10T03:40:12;99980.09;;;8.52;100.00
8320;BME280;4197;42.130;24.746;2023-05-10T03:42:42;99981.63;;;8.61;100.00
8320;BME280;4197;42.130;24.746;2023-05-10T03:45:14;99986.09;;;8.57;100.00
8320;BME280;4197;42.130;24.746;2023-05-10T03:47:43;99991.94;;;8.68;100.00
8320;BME280;4197;42.130;24.746;2023-05-10T03:50:17;99990.00;;;8.68;100.00
8320;BME280;4197;42.130;24.746;2023-05-10T03:52:46;99992.84;;;8.72;100.00
8320;BME280;4197;42.130;24.746;2023-05-10T03:55:16;99989.75;;;8.82;100.00
8320;BME280;4197;42.130;24.746;2023-05-10T03:57:45;99991.88;;;8.98;100.00
8320;BME280;4197;42.130;24.746;2023-05-10T04:00:15;99993.78;;;8.97;100.00
8320;BME280;4197;42.130;24.746;2023-05-10T04:02:44;100000.59;;;8.82;100.00
8320;BME280;4197;42.130;24.746;2023-05-10T04:05:13;99997.09;;;8.82;100.00
8320;BME280;4197;42.130;24.746;2023-05-10T04:07:43;100003.41;;;8.86;100.00
8320;BME280;4197;42.130;24.746;2023-05-10T04:10:14;100002.94;;;8.84;100.00
8320;BME280;4197;42.130;24.746;2023-05-10T04:12:46;100006.47;;;8.84;100.00
8320;BME280;4197;42.130;24.746;2023-05-10T04:15:15;100003.75;;;8.84;100.00
8320;BME280;4197;42.130;24.746;2023-05-10T04:17:43;100003.09;;;8.87;100.00
8320;BME280;4197;42.130;24.746;2023-05-10T04:20:15;100002.94;;;8.84;100.00
8320;BME280;4197;42.130;24.746;2023-05-10T04:22:47;100015.88;;;8.78;100.00
8320;BME280;4197;42.130;24.746;2023-05-10T04:25:15;100011.09;;;9.05;100.00
8320;BME280;4197;42.130;24.746;2023-05-10T04:27:46;100009.38;;;9.21;100.00
8320;BME280;4197;42.130;24.746;2023-05-10T04:30:14;100021.38;;;9.32;100.00
8320;BME280;4197;42.130;24.746;2023-05-10T04:32:43;100021.50;;;9.36;100.00
8320;BME280;4197;42.130;24.746;2023-05-10T04:35:12;100017.03;;;9.19;100.00
8320;BME280;4197;42.130;24.746;2023-05-10T04:37:41;100024.66;;;9.17;100.00
8320;BME280;4197;42.130;24.746;2023-05-10T04:40:12;100026.66;;;9.08;100.00
8320;BME280;4197;42.130;24.746;2023-05-10T04:42:42;100023.63;;;9.09;100.00
8320;BME280;4197;42.130;24.746;2023-05-10T04:45:12;100031.09;;;9.12;100.00
8320;BME280;4197;42.130;24.746;2023-05-10T04:47:42;100020.75;;;9.14;100.00
8320;BME280;4197;42.130;24.746;2023-05-10T04:50:11;100022.28;;;9.36;100.00
8320;BME280;4197;42.130;24.746;2023-05-10T04:52:40;100022.50;;;9.31;100.00
8320;BME280;4197;42.130;24.746;2023-05-10T04:55:09;100024.28;;;9.27;100.00
8320;BME280;4197;42.130;24.746;2023-05-10T04:57:39;100021.19;;;9.37;100.00
8320;BME280;4197;42.130;24.746;2023-05-10T05:00:08;100025.25;;;9.65;100.00
8320;BME280;4197;42.130;24.746;2023-05-10T05:02:37;100027.78;;;9.82;100.00
8320;BME280;4197;42.130;24.746;2023-05-10T05:05:06;100030.41;;;9.91;100.00
8320;BME280;4197;42.130;24.746;2023-05-10T05:07:35;100030.22;;;9.75;100.00
8320;BME280;4197;42.130;24.746;2023-05-10T05:10:05;100031.56;;;9.69;100.00
8320;BME280;4197;42.130;24.746;2023-05-10T05:12:33;100031.13;;;10.12;100.00
8320;BME280;4197;42.130;24.746;2023-05-10T05:15:07;100036.84;;;9.98;100.00
8320;BME280;4197;42.130;24.746;2023-05-10T05:17:36;100044.59;;;9.88;100.00
8320;BME280;4197;42.130;24.746;2023-05-10T05:20:06;100039.88;;;9.64;100.00
8320;BME280;4197;42.130;24.746;2023-05-10T05:22:36;100029.72;;;9.60;100.00
8320;BME280;4197;42.130;24.746;2023-05-10T05:25:05;100041.16;;;9.66;100.00
8320;BME280;4197;42.130;24.746;2023-05-10T05:27:33;100020.72;;;10.02;100.00
8320;BME280;4197;42.130;24.746;2023-05-10T05:30:06;100027.78;;;10.27;100.00
8320;BME280;4197;42.130;24.746;2023-05-10T05:32:35;100027.56;;;10.45;100.00
8320;BME280;4197;42.130;24.746;2023-05-10T05:35:04;100024.06;;;10.57;100.00
8320;BME280;4197;42.130;24.746;2023-05-10T05:37:33;100022.81;;;10.79;100.00
8320;BME280;4197;42.130;24.746;2023-05-10T05:40:01;100020.69;;;10.47;100.00
8320;BME280;4197;42.130;24.746;2023-05-10T05:42:31;100026.31;;;10.55;100.00
8320;BME280;4197;42.130;24.746;2023-05-10T05:44:59;100029.44;;;10.20;100.00
8320;BME280;4197;42.130;24.746;2023-05-10T05:47:29;100029.03;;;9.97;100.00
8320;BME280;4197;42.130;24.746;2023-05-10T05:50:00;100035.19;;;10.18;100.00
8320;BME280;4197;42.130;24.746;2023-05-10T05:52:30;100040.94;;;10.04;100.00
8320;BME280;4197;42.130;24.746;2023-05-10T05:54:58;100046.22;;;10.01;100.00
8320;BME280;4197;42.130;24.746;2023-05-10T05:57:27;100044.06;;;10.40;100.00
8320;BME280;4197;42.130;24.746;2023-05-10T05:59:55;100052.66;;;10.79;100.00
8320;BME280;4197;42.130;24.746;2023-05-10T06:02:23;100039.03;;;11.15;100.00
8320;BME280;4197;42.130;24.746;2023-05-10T06:04:54;100044.63;;;11.35;100.00
8320;BME280;4197;42.130;24.746;2023-05-10T06:07:22;100047.44;;;11.38;100.00
8320;BME280;4197;42.130;24.746;2023-05-10T06:09:53;100048.09;;;11.07;100.00
8320;BME280;4197;42.130;24.746;2023-05-10T06:12:21;100047.50;;;11.14;100.00
8320;BME280;4197;42.130;24.746;2023-05-10T06:14:50;100043.59;;;10.87;100.00
8320;BME280;4197;42.130;24.746;2023-05-10T06:17:18;100045.19;;;10.51;100.00
8320;BME280;4197;42.130;24.746;2023-05-10T06:19:47;100043.09;;;10.23;100.00
8320;BME280;4197;42.130;24.746;2023-05-10T06:22:18;100050.19;;;10.16;100.00
8320;BME280;4197;42.130;24.746;2023-05-10T06:24:48;100050.16;;;10.37;100.00
8320;BME280;4197;42.130;24.746;2023-05-10T06:27:17;100049.25;;;10.57;100.00
8320;BME280;4197;42.130;24.746;2023-05-10T06:29:46;100059.66;;;10.67;100.00
8320;BME280;4197;42.130;24.746;2023-05-10T06:32:19;100057.16;;;10.50;100.00
8320;BME280;4197;42.130;24.746;2023-05-10T06:34:48;100057.53;;;10.73;100.00
8320;BME280;4197;42.130;24.746;2023-05-10T06:37:22;100056.94;;;10.80;100.00
8320;BME280;4197;42.130;24.746;2023-05-10T06:39:50;100066.44;;;10.98;100.00
8320;BME280;4197;42.130;24.746;2023-05-10T06:42:20;100059.75;;;11.48;100.00
8320;BME280;4197;42.130;24.746;2023-05-10T06:44:49;100052.78;;;11.35;100.00
8320;BME280;4197;42.130;24.746;2023-05-10T06:47:17;100063.69;;;11.23;100.00
8320;BME280;4197;42.130;24.746;2023-05-10T06:49:46;100057.50;;;11.38;100.00
8320;BME280;4197;42.130;24.746;2023-05-10T06:52:14;100062.41;;;11.60;100.00
8320;BME280;4197;42.130;24.746;2023-05-10T06:54:44;100065.72;;;11.26;100.00
8320;BME280;4197;42.130;24.746;2023-05-10T06:57:12;100056.25;;;11.48;100.00
8320;BME280;4197;42.130;24.746;2023-05-10T06:59:57;100058.13;;;11.59;100.00
8320;BME280;4197;42.130;24.746;2023-05-10T07:02:26;100046.50;;;11.47;100.00
8320;BME280;4197;42.130;24.746;2023-05-10T07:04:55;100062.31;;;11.16;100.00
8320;BME280;4197;42.130;24.746;2023-05-10T07:07:28;100055.13;;;10.96;100.00
8320;BME280;4197;42.130;24.746;2023-05-10T07:09:59;100065.72;;;11.13;100.00
8320;BME280;4197;42.130;24.746;2023-05-10T07:12:27;100068.44;;;11.13;100.00
8320;BME280;4197;42.130;24.746;2023-05-10T07:14:55;100071.69;;;11.19;100.00
8320;BME280;4197;42.130;24.746;2023-05-10T07:17:24;100065.59;;;11.22;100.00
8320;BME280;4197;42.130;24.746;2023-05-10T07:19:53;100054.25;;;11.32;100.00
8320;BME280;4197;42.130;24.746;2023-05-10T07:22:23;100054.91;;;11.42;100.00
8320;BME280;4197;42.130;24.746;2023-05-10T07:24:52;100067.50;;;11.34;100.00
8320;BME280;4197;42.130;24.746;2023-05-10T07:27:22;100058.94;;;11.20;100.00
8320;BME280;4197;42.130;24.746;2023-05-10T07:29:50;100060.75;;;11.56;100.00
8320;BME280;4197;42.130;24.746;2023-05-10T07:32:21;100055.97;;;11.65;100.00
8320;BME280;4197;42.130;24.746;2023-05-10T07:34:51;100064.00;;;11.61;100.00
8320;BME280;4197;42.130;24.746;2023-05-10T07:37:20;100076.38;;;11.75;100.00
8320;BME280;4197;42.130;24.746;2023-05-10T07:39:48;100069.13;;;11.79;100.00
8320;BME280;4197;42.130;24.746;2023-05-10T07:42:18;100081.16;;;11.78;100.00
8320;BME280;4197;42.130;24.746;2023-05-10T07:44:48;100070.22;;;11.62;100.00
8320;BME280;4197;42.130;24.746;2023-05-10T07:47:17;100069.78;;;11.60;100.00
8320;BME280;4197;42.130;24.746;2023-05-10T07:49:48;100071.47;;;11.65;100.00
8320;BME280;4197;42.130;24.746;2023-05-10T07:52:16;100075.97;;;12.01;100.00
8320;BME280;4197;42.130;24.746;2023-05-10T07:54:48;100077.13;;;12.16;100.00
8320;BME280;4197;42.130;24.746;2023-05-10T07:57:18;100071.72;;;12.47;100.00
8320;BME280;4197;42.130;24.746;2023-05-10T07:59:50;100074.72;;;13.09;100.00
8320;BME280;4197;42.130;24.746;2023-05-10T08:02:18;100081.56;;;13.19;100.00
8320;BME280;4197;42.130;24.746;2023-05-10T08:04:47;100089.78;;;13.77;100.00
8320;BME280;4197;42.130;24.746;2023-05-10T08:07:15;100082.63;;;14.12;100.00
8320;BME280;4197;42.130;24.746;2023-05-10T08:09:43;100092.44;;;14.36;100.00
8320;BME280;4197;42.130;24.746;2023-05-10T08:12:11;100085.13;;;14.20;100.00
8320;BME280;4197;42.130;24.746;2023-05-10T08:14:40;100090.28;;;13.83;100.00
8320;BME280;4197;42.130;24.746;2023-05-10T08:17:10;100096.63;;;13.32;100.00
8320;BME280;4197;42.130;24.746;2023-05-10T08:19:39;100096.19;;;12.79;100.00
8320;BME280;4197;42.130;24.746;2023-05-10T08:22:08;100100.31;;;12.73;100.00
8320;BME280;4197;42.130;24.746;2023-05-10T08:24:36;100107.53;;;12.65;100.00
8320;BME280;4197;42.130;24.746;2023-05-10T08:27:05;100091.97;;;12.98;100.00
8320;BME280;4197;42.130;24.746;2023-05-10T08:29:34;100090.41;;;13.32;100.00
8320;BME280;4197;42.130;24.746;2023-05-10T08:32:17;100098.53;;;13.67;100.00
8320;BME280;4197;42.130;24.746;2023-05-10T08:34:45;100092.03;;;13.72;100.00
8320;BME280;4197;42.130;24.746;2023-05-10T08:37:13;100098.53;;;13.87;100.00
8320;BME280;4197;42.130;24.746;2023-05-10T08:39:42;100104.28;;;13.62;100.00
8320;BME280;4197;42.130;24.746;2023-05-10T08:42:12;100099.03;;;13.53;100.00
8320;BME280;4197;42.130;24.746;2023-05-10T08:44:45;100094.13;;;14.01;100.00
8320;BME280;4197;42.130;24.746;2023-05-10T08:47:18;100101.13;;;13.25;100.00
8320;BME280;4197;42.130;24.746;2023-05-10T08:49:47;100095.84;;;13.16;100.00
8320;BME280;4197;42.130;24.746;2023-05-10T08:52:18;100095.09;;;13.00;100.00
8320;BME280;4197;42.130;24.746;2023-05-10T08:54:47;100091.44;;;12.92;100.00
8320;BME280;4197;42.130;24.746;2023-05-10T08:57:15;100092.53;;;13.23;100.00
8320;BME280;4197;42.130;24.746;2023-05-10T08:59:44;100094.28;;;13.15;100.00
8320;BME280;4197;42.130;24.746;2023-05-10T09:02:13;100089.13;;;13.10;100.00
8320;BME280;4197;42.130;24.746;2023-05-10T09:04:45;100097.22;;;13.06;100.00
8320;BME280;4197;42.130;24.746;2023-05-10T09:07:16;100085.25;;;13.11;100.00
8320;BME280;4197;42.130;24.746;2023-05-10T09:09:46;100090.50;;;13.20;100.00
8320;BME280;4197;42.130;24.746;2023-05-10T09:12:22;100086.63;;;13.36;100.00
8320;BME280;4197;42.130;24.746;2023-05-10T09:14:51;100076.56;;;13.79;100.00
8320;BME280;4197;42.130;24.746;2023-05-10T09:17:21;100081.88;;;13.92;100.00
8320;BME280;4197;42.130;24.746;2023-05-10T09:19:59;100078.84;;;14.16;100.00
8320;BME280;4197;42.130;24.746;2023-05-10T09:22:27;100079.84;;;14.08;100.00
8320;BME280;4197;42.130;24.746;2023-05-10T09:25:06;100071.13;;;14.22;100.00
8320;BME280;4197;42.130;24.746;2023-05-10T09:27:35;100070.25;;;13.95;100.00
8320;BME280;4197;42.130;24.746;2023-05-10T09:30:06;100072.28;;;13.59;100.00
8320;BME280;4197;42.130;24.746;2023-05-10T09:32:39;100074.13;;;13.35;100.00
8320;BME280;4197;42.130;24.746;2023-05-10T09:35:11;100067.84;;;13.15;100.00
8320;BME280;4197;42.130;24.746;2023-05-10T09:37:43;100055.44;;;13.18;100.00
8320;BME280;4197;42.130;24.746;2023-05-10T09:40:16;100072.47;;;12.95;100.00
8320;BME280;4197;42.130;24.746;2023-05-10T09:42:52;100059.66;;;13.31;100.00
8320;BME280;4197;42.130;24.746;2023-05-10T09:45:22;100061.22;;;13.32;100.00
8320;BME280;4197;42.130;24.746;2023-05-10T09:47:51;100060.44;;;13.90;100.00
8320;BME280;4197;42.130;24.746;2023-05-10T09:50:22;100057.03;;;14.16;100.00
8320;BME280;4197;42.130;24.746;2023-05-10T09:52:52;100050.88;;;14.00;100.00
8320;BME280;4197;42.130;24.746;2023-05-10T09:55:23;100050.75;;;13.93;100.00
8320;BME280;4197;42.130;24.746;2023-05-10T09:57:59;100055.25;;;13.85;100.00
8320;BME280;4197;42.130;24.746;2023-05-10T10:00:34;100042.81;;;14.07;100.00
8320;BME280;4197;42.130;24.746;2023-05-10T10:03:04;100042.50;;;14.35;100.00
8320;BME280;4197;42.130;24.746;2023-05-10T10:05:35;100042.94;;;14.14;100.00
8320;BME280;4197;42.130;24.746;2023-05-10T10:08:04;100042.06;;;13.87;100.00
8320;BME280;4197;42.130;24.746;2023-05-10T10:10:33;100034.88;;;13.98;100.00
8320;BME280;4197;42.130;24.746;2023-05-10T10:13:02;100018.03;;;13.93;100.00
8320;BME280;4197;42.130;24.746;2023-05-10T10:15:33;100028.28;;;13.80;100.00
8320;BME280;4197;42.130;24.746;2023-05-10T10:18:01;100018.88;;;13.97;100.00
8320;BME280;4197;42.130;24.746;2023-05-10T10:20:33;100026.97;;;13.93;100.00
8320;BME280;4197;42.130;24.746;2023-05-10T10:23:02;100027.06;;;13.97;100.00
8320;BME280;4197;42.130;24.746;2023-05-10T10:25:31;100025.63;;;14.03;100.00
8320;BME280;4197;42.130;24.746;2023-05-10T10:28:09;100029.41;;;13.98;100.00
8320;BME280;4197;42.130;24.746;2023-05-10T10:30:42;100024.34;;;13.97;100.00
8320;BME280;4197;42.130;24.746;2023-05-10T10:36:07;100034.28;;;14.09;100.00
8320;BME280;4197;42.130;24.746;2023-05-10T10:41:31;100035.97;;;14.17;100.00
8320;BME280;4197;42.130;24.746;2023-05-10T10:47:22;100027.72;;;14.36;94.25
8320;BME280;4197;42.130;24.746;2023-05-10T10:50:03;100026.59;;;14.14;90.30
8320;BME280;4197;42.130;24.746;2023-05-10T10:52:34;100021.28;;;14.02;90.51
8320;BME280;4197;42.130;24.746;2023-05-10T10:55:06;100023.19;;;14.21;88.90
8320;BME280;4197;42.130;24.746;2023-05-10T10:57:44;100026.84;;;14.78;85.77
8320;BME280;4197;42.130;24.746;2023-05-10T11:00:28;100021.69;;;15.00;83.50
8320;BME280;4197;42.130;24.746;2023-05-10T11:03:00;100016.88;;;15.53;85.50
8320;BME280;4197;42.130;24.746;2023-05-10T11:05:40;100012.72;;;15.67;83.72
8320;BME280;4197;42.130;24.746;2023-05-10T11:08:12;100024.47;;;15.33;81.90
8320;BME280;4197;42.130;24.746;2023-05-10T11:11:01;100011.69;;;15.11;80.06
8320;BME280;4197;42.130;24.746;2023-05-10T11:13:32;100009.38;;;14.83;75.19
8320;BME280;4197;42.130;24.746;2023-05-10T11:16:18;99999.72;;;14.92;75.84
8320;BME280;4197;42.130;24.746;2023-05-10T11:18:57;100000.75;;;14.54;74.40
8320;BME280;4197;42.130;24.746;2023-05-10T11:21:27;100006.56;;;14.29;74.70
8320;BME280;4197;42.130;24.746;2023-05-10T11:23:59;100002.78;;;14.38;73.33
8320;BME280;4197;42.130;24.746;2023-05-10T11:26:32;100010.88;;;14.54;72.12
8320;BME280;4197;42.130;24.746;2023-05-10T11:29:02;100002.94;;;14.98;71.92
8320;BME280;4197;42.130;24.746;2023-05-10T11:31:32;99990.13;;;15.36;69.35
8320;BME280;4197;42.130;24.746;2023-05-10T11:34:00;99991.03;;;15.13;69.66
8320;BME280;4197;42.130;24.746;2023-05-10T11:36:34;99997.13;;;14.73;67.75
8320;BME280;4197;42.130;24.746;2023-05-10T11:39:05;99992.41;;;15.30;67.17
8320;BME280;4197;42.130;24.746;2023-05-10T11:41:34;99986.88;;;15.27;65.51
8320;BME280;4197;42.130;24.746;2023-05-10T11:44:02;99988.91;;;15.00;67.04
8320;BME280;4197;42.130;24.746;2023-05-10T11:46:30;99991.06;;;15.17;69.40
8320;BME280;4197;42.130;24.746;2023-05-10T11:49:00;99989.53;;;15.87;66.50
8320;BME280;4197;42.130;24.746;2023-05-10T11:51:33;99986.97;;;16.05;62.74
8320;BME280;4197;42.130;24.746;2023-05-10T11:54:07;99987.22;;;15.55;63.80
8320;BME280;4197;42.130;24.746;2023-05-10T11:56:37;100001.50;;;15.08;63.01
8320;BME280;4197;42.130;24.746;2023-05-10T11:59:06;99990.56;;;14.78;65.27
8320;BME280;4197;42.130;24.746;2023-05-10T12:01:36;99986.97;;;14.73;66.51
8320;BME280;4197;42.130;24.746;2023-05-10T12:04:05;99981.06;;;15.28;66.66
8320;BME280;4197;42.130;24.746;2023-05-10T12:06:40;99984.13;;;15.94;63.60
8320;BME280;4197;42.130;24.746;2023-05-10T12:09:09;99975.78;;;15.46;61.63
8320;BME280;4197;42.130;24.746;2023-05-10T12:11:39;99979.88;;;15.26;64.08
8320;BME280;4197;42.130;24.746;2023-05-10T12:14:10;99979.47;;;15.61;64.23
8320;BME280;4197;42.130;24.746;2023-05-10T12:16:39;99975.59;;;15.99;62.20
8320;BME280;4197;42.130;24.746;2023-05-10T12:19:07;99980.94;;;16.33;60.14
8320;BME280;4197;42.130;24.746;2023-05-10T12:21:37;99968.69;;;16.16;63.17
8320;BME280;4197;42.130;24.746;2023-05-10T12:24:05;99971.84;;;16.22;56.69
8320;BME280;4197;42.130;24.746;2023-05-10T12:26:37;99962.97;;;15.50;59.38
8320;BME280;4197;42.130;24.746;2023-05-10T12:29:13;99957.69;;;15.68;59.92
8320;BME280;4197;42.130;24.746;2023-05-10T12:31:53;99956.44;;;15.62;62.39
8320;BME280;4197;42.130;24.746;2023-05-10T12:34:24;99952.94;;;16.58;62.48
8320;BME280;4197;42.130;24.746;2023-05-10T12:36:53;99957.47;;;16.98;60.68
8320;BME280;4197;42.130;24.746;2023-05-10T12:39:22;99958.03;;;17.39;59.58
8320;BME280;4197;42.130;24.746;2023-05-10T12:41:54;99953.38;;;16.63;58.57
8320;BME280;4197;42.130;24.746;2023-05-10T12:44:22;99936.31;;;16.25;62.39
8320;BME280;4197;42.130;24.746;2023-05-10T12:46:50;99946.75;;;16.13;60.04
8320;BME280;4197;42.130;24.746;2023-05-10T12:49:19;99940.94;;;15.70;61.34
8320;BME280;4197;42.130;24.746;2023-05-10T12:51:47;99935.59;;;15.47;62.42
8320;BME280;4197;42.130;24.746;2023-05-10T12:54:16;99921.81;;;15.73;64.77
8320;BME280;4197;42.130;24.746;2023-05-10T12:56:44;99920.28;;;16.24;61.54
8320;BME280;4197;42.130;24.746;2023-05-10T12:59:13;99919.56;;;16.38;59.61
8320;BME280;4197;42.130;24.746;2023-05-10T13:01:41;99917.22;;;16.36;58.17
8320;BME280;4197;42.130;24.746;2023-05-10T13:04:12;99913.28;;;16.34;60.29
8320;BME280;4197;42.130;24.746;2023-05-10T13:06:41;99914.66;;;16.02;57.27
8320;BME280;4197;42.130;24.746;2023-05-10T13:09:10;99904.72;;;15.83;58.39
8320;BME280;4197;42.130;24.746;2023-05-10T13:11:38;99906.97;;;16.19;57.27
8320;BME280;4197;42.130;24.746;2023-05-10T13:14:07;99901.38;;;16.70;57.88
8320;BME280;4197;42.130;24.746;2023-05-10T13:16:36;99897.72;;;16.45;58.73
8320;BME280;4197;42.130;24.746;2023-05-10T13:19:04;99900.69;;;16.84;58.90
8320;BME280;4197;42.130;24.746;2023-05-10T13:21:32;99897.31;;;17.30;58.89
8320;BME280;4197;42.130;24.746;2023-05-10T13:24:02;99890.69;;;17.71;56.15
8320;BME280;4197;42.130;24.746;2023-05-10T13:26:30;99898.94;;;17.74;55.19
8320;BME280;4197;42.130;24.746;2023-05-10T13:28:58;99893.03;;;17.65;55.23
8320;BME280;4197;42.130;24.746;2023-05-10T13:31:26;99901.69;;;17.60;56.50